Portovyk- 7 — EMAA — position and weather

sailwx.info

Track history (hours):
 
Tides and Currents Weather Stations Pressure Air Temp Water Temp Dewpoint Dewpoint Depression Visibility Wind Speed Wind Dir Waves Ship Positions

Portovyk- 7

Last reported at 2018-Jun-03 16:11 UTC. Time now 2018-Jun-18 13:07 UTC.
Position N 48°03' E 035°06'.
Warning: this ship's position is 14 days out of date.

Length 30 m.

Type: Tug. MMSI: 272139600.

Date/timePositionNaut miles runAvg speedWind from/ knotsBaromVisibWave heightAir tempDewpointWater temp
2018-Jun-03 16:11N 48°03' E 035°06'1 3.3
2018-Jun-03 15:58N 48°03' E 035°07'1 3.2
2018-Jun-03 15:31N 48°02' E 035°08'2 3.2
2018-Jun-03 15:01N 48°00' E 035°08'2 3.3
2018-Jun-03 14:30N 47°58' E 035°08'2 3.4
2018-Jun-03 14:00N 47°57' E 035°07'2 3.4
2018-Jun-03 13:31N 47°55' E 035°07'2 3.4
2018-Jun-03 13:01N 47°53' E 035°06'1 2.4
2018-Jun-03 12:26N 47°52' E 035°06'0 0.7
2018-Jun-03 11:56N 47°52' E 035°06'0 0.0
2018-Jun-03 11:14N 47°52' E 035°05'0 1.6
2018-Jun-03 10:56N 47°51' E 035°05'2 3.4
2018-Jun-03 10:29N 47°50' E 035°06'2 3.7
2018-Jun-03 10:00N 47°49' E 035°08'1 2.3
2018-Jun-03 09:26N 47°48' E 035°10'0 0.0
2018-Jun-03 08:56N 47°48' E 035°10'0 0.0
2018-Jun-03 08:26N 47°48' E 035°10'0 0.0
2018-Jun-03 07:56N 47°48' E 035°10'0 0.0
2018-Jun-03 07:26N 47°48' E 035°10'0 0.0
2018-Jun-03 06:56N 47°48' E 035°10'0 0.3
2018-Jun-03 06:23N 47°48' E 035°10'0 0.0
2018-Jun-03 05:59N 47°48' E 035°10'0 0.0
2018-Jun-03 05:29N 47°48' E 035°10'0 0.0
2018-Jun-03 04:59N 47°48' E 035°10'0 0.0
2018-Jun-03 04:29N 47°48' E 035°10'0 0.0
2018-Jun-03 03:59N 47°48' E 035°10'0 0.0
2018-Jun-03 03:29N 47°48' E 035°10'0 0.0
2018-Jun-03 02:59N 47°48' E 035°10'0 0.0
2018-Jun-03 02:23N 47°48' E 035°10'0 0.0
2018-Jun-03 01:59N 47°48' E 035°10'0 0.0
2018-Jun-03 01:23N 47°48' E 035°10'0 0.0
2018-Jun-03 00:59N 47°48' E 035°10'0 0.0
2018-Jun-03 00:29N 47°48' E 035°10'0 0.0
2018-Jun-02 23:59N 47°48' E 035°10'0 0.0
2018-Jun-02 23:29N 47°48' E 035°10'0 0.0
2018-Jun-02 22:59N 47°48' E 035°10'0 0.0
2018-Jun-02 22:29N 47°48' E 035°10'0 0.0
2018-Jun-02 21:59N 47°48' E 035°10'0 0.0
2018-Jun-02 21:29N 47°48' E 035°10'0 0.0
2018-Jun-02 20:59N 47°48' E 035°10'0 0.0
2018-Jun-02 20:29N 47°48' E 035°10'0 0.0
2018-Jun-02 19:59N 47°48' E 035°10'0 0.0
2018-Jun-02 19:29N 47°48' E 035°10'0 0.0
2018-Jun-02 18:59N 47°48' E 035°10'0 0.0
2018-Jun-02 18:29N 47°48' E 035°10'0 0.0
2018-Jun-02 17:59N 47°48' E 035°10'0 0.0
2018-Jun-02 17:29N 47°48' E 035°10'0 0.0
2018-Jun-02 16:59N 47°48' E 035°10'0 0.0
2018-Jun-02 16:29N 47°48' E 035°10'0 0.0
2018-Jun-02 15:53N 47°48' E 035°10'0 0.0
2018-Jun-02 15:29N 47°48' E 035°10'0 0.1
2018-Jun-02 14:55N 47°48' E 035°10'0 0.4
2018-Jun-02 14:25N 47°48' E 035°10'0 0.0
2018-Jun-02 13:55N 47°48' E 035°10'0 0.0
2018-Jun-02 13:19N 47°48' E 035°10'0 0.1
2018-Jun-02 12:55N 47°48' E 035°10'0 0.6
2018-Jun-02 12:19N 47°49' E 035°10'0 0.0
2018-Jun-02 11:55N 47°49' E 035°10'0 0.0
2018-Jun-02 11:25N 47°49' E 035°10'0 0.0
2018-Jun-02 10:55N 47°49' E 035°10'0 0.0
2018-Jun-02 10:25N 47°49' E 035°10'0 0.0
2018-Jun-02 09:55N 47°49' E 035°10'0 0.0
2018-Jun-02 09:25N 47°49' E 035°10'0 0.0
2018-Jun-02 08:55N 47°49' E 035°10'0 0.0
2018-Jun-02 08:25N 47°49' E 035°10'0 0.0
2018-Jun-02 07:55N 47°49' E 035°10'0 0.0
2018-Jun-02 07:25N 47°49' E 035°10'0 0.0
2018-Jun-02 06:55N 47°49' E 035°10'0 0.0
2018-Jun-02 06:25N 47°49' E 035°10'0 0.0
2018-Jun-02 05:55N 47°49' E 035°10'0 0.0
2018-Jun-02 05:25N 47°49' E 035°10'0 0.0
2018-Jun-02 04:55N 47°49' E 035°10'0 0.0
2018-Jun-02 04:25N 47°49' E 035°10'0 0.0
2018-Jun-02 03:55N 47°49' E 035°10'0 0.5
2018-Jun-02 03:30N 47°48' E 035°09'3 5.1
2018-Jun-02 03:00N 47°50' E 035°06'2 3.6
2018-Jun-02 02:27N 47°52' E 035°06'0 0.2
2018-Jun-02 01:57N 47°52' E 035°06'0 0.7
2018-Jun-02 01:27N 47°52' E 035°06'0 0.7
2018-Jun-02 00:55N 47°52' E 035°06'0 0.0
2018-Jun-02 00:25N 47°52' E 035°06'0 0.0
2018-Jun-01 23:55N 47°52' E 035°06'0 0.0
2018-Jun-01 23:19N 47°52' E 035°06'0 0.0
2018-Jun-01 22:55N 47°52' E 035°06'0 0.0
2018-Jun-01 22:25N 47°52' E 035°06'0 0.0
2018-Jun-01 21:55N 47°52' E 035°06'0 0.0
2018-Jun-01 21:25N 47°52' E 035°06'0 0.0
2018-Jun-01 20:55N 47°52' E 035°06'0 0.0
2018-Jun-01 20:25N 47°52' E 035°06'0 0.0
2018-Jun-01 19:55N 47°52' E 035°06'0 0.0
2018-Jun-01 19:25N 47°52' E 035°06'0 0.0
2018-Jun-01 18:55N 47°52' E 035°06'0 0.0
2018-Jun-01 18:13N 47°52' E 035°06'0 0.0
2018-Jun-01 17:55N 47°52' E 035°06'0 0.0
2018-Jun-01 17:07N 47°52' E 035°06'0 0.0
2018-Jun-01 16:58N 47°52' E 035°06'0 0.5
2018-Jun-01 16:27N 47°52' E 035°06'2 3.9
2018-Jun-01 16:00N 47°54' E 035°07'2 4.5
2018-Jun-01 15:29N 47°56' E 035°07'2 4.4
2018-Jun-01 14:59N 47°59' E 035°07'2 3.5
2018-Jun-01 14:29N 48°00' E 035°08'  
2018-May-29 19:17N 48°02' E 035°07'1 3.0
2018-May-29 18:58N 48°02' E 035°08'1 3.0
2018-May-29 18:30N 48°00' E 035°08'2 3.2
2018-May-29 18:00N 47°59' E 035°08'2 3.2
2018-May-29 17:29N 47°57' E 035°07'2 3.2
2018-May-29 17:00N 47°55' E 035°07'2 3.1
2018-May-29 16:30N 47°54' E 035°06'2 3.1
2018-May-29 16:00N 47°52' E 035°06'0 0.6
2018-May-29 15:26N 47°52' E 035°06'0 0.9
2018-May-29 14:58N 47°52' E 035°06'0 0.2
2018-May-29 14:28N 47°52' E 035°06'1 1.7
2018-May-29 13:58N 47°52' E 035°05'0 0.2
2018-May-29 13:28N 47°52' E 035°05'1 2.9
2018-May-29 13:00N 47°50' E 035°05'2 4.3
2018-May-29 12:29N 47°49' E 035°08'1 2.8
2018-May-29 12:00N 47°48' E 035°10'0 0.7
2018-May-29 11:25N 47°49' E 035°10'0 0.0
2018-May-29 10:43N 47°49' E 035°10'0 0.0
2018-May-29 10:25N 47°49' E 035°10'0 1.0
2018-May-29 09:56N 47°48' E 035°10'1 2.6
2018-May-29 09:26N 47°47' E 035°09'1 2.8
2018-May-29 08:58N 47°46' E 035°10'1 2.8
2018-May-29 08:30N 47°44' E 035°10'1 2.8
2018-May-29 07:59N 47°43' E 035°09'9 2.3
2018-May-29 04:12N 47°35' E 035°03'0 0.0
2018-May-29 04:00N 47°35' E 035°03'0 0.0
2018-May-29 03:24N 47°35' E 035°03'0 0.0
2018-May-29 03:00N 47°35' E 035°03'  
Track history (hours):
 
Tides and Currents Weather Stations Pressure Air Temp Water Temp Dewpoint Dewpoint Depression Visibility Wind Speed Wind Dir Waves Ship Positions

Portovyk- 7

Last reported at 2018-Jun-03 16:11 UTC. Time now 2018-Jun-18 13:07 UTC.
Position N 48°03' E 035°06'.
Warning: this ship's position is 14 days out of date.

Length 30 m.

Type: Tug. MMSI: 272139600.

Date/timePositionNaut miles runAvg speedWind from/ knotsBaromVisibWave heightAir tempDewpointWater temp
2018-Jun-03 16:11N 48°03' E 035°06'1 3.3
2018-Jun-03 15:58N 48°03' E 035°07'1 3.2
2018-Jun-03 15:31N 48°02' E 035°08'2 3.2
2018-Jun-03 15:01N 48°00' E 035°08'2 3.3
2018-Jun-03 14:30N 47°58' E 035°08'2 3.4
2018-Jun-03 14:00N 47°57' E 035°07'2 3.4
2018-Jun-03 13:31N 47°55' E 035°07'2 3.4
2018-Jun-03 13:01N 47°53' E 035°06'1 2.4
2018-Jun-03 12:26N 47°52' E 035°06'0 0.7
2018-Jun-03 11:56N 47°52' E 035°06'0 0.0
2018-Jun-03 11:14N 47°52' E 035°05'0 1.6
2018-Jun-03 10:56N 47°51' E 035°05'2 3.4
2018-Jun-03 10:29N 47°50' E 035°06'2 3.7
2018-Jun-03 10:00N 47°49' E 035°08'1 2.3
2018-Jun-03 09:26N 47°48' E 035°10'0 0.0
2018-Jun-03 08:56N 47°48' E 035°10'0 0.0
2018-Jun-03 08:26N 47°48' E 035°10'0 0.0
2018-Jun-03 07:56N 47°48' E 035°10'0 0.0
2018-Jun-03 07:26N 47°48' E 035°10'0 0.0
2018-Jun-03 06:56N 47°48' E 035°10'0 0.3
2018-Jun-03 06:23N 47°48' E 035°10'0 0.0
2018-Jun-03 05:59N 47°48' E 035°10'0 0.0
2018-Jun-03 05:29N 47°48' E 035°10'0 0.0
2018-Jun-03 04:59N 47°48' E 035°10'0 0.0
2018-Jun-03 04:29N 47°48' E 035°10'0 0.0
2018-Jun-03 03:59N 47°48' E 035°10'0 0.0
2018-Jun-03 03:29N 47°48' E 035°10'0 0.0
2018-Jun-03 02:59N 47°48' E 035°10'0 0.0
2018-Jun-03 02:23N 47°48' E 035°10'0 0.0
2018-Jun-03 01:59N 47°48' E 035°10'0 0.0
2018-Jun-03 01:23N 47°48' E 035°10'0 0.0
2018-Jun-03 00:59N 47°48' E 035°10'0 0.0
2018-Jun-03 00:29N 47°48' E 035°10'0 0.0
2018-Jun-02 23:59N 47°48' E 035°10'0 0.0
2018-Jun-02 23:29N 47°48' E 035°10'0 0.0
2018-Jun-02 22:59N 47°48' E 035°10'0 0.0
2018-Jun-02 22:29N 47°48' E 035°10'0 0.0
2018-Jun-02 21:59N 47°48' E 035°10'0 0.0
2018-Jun-02 21:29N 47°48' E 035°10'0 0.0
2018-Jun-02 20:59N 47°48' E 035°10'0 0.0
2018-Jun-02 20:29N 47°48' E 035°10'0 0.0
2018-Jun-02 19:59N 47°48' E 035°10'0 0.0
2018-Jun-02 19:29N 47°48' E 035°10'0 0.0
2018-Jun-02 18:59N 47°48' E 035°10'0 0.0
2018-Jun-02 18:29N 47°48' E 035°10'0 0.0
2018-Jun-02 17:59N 47°48' E 035°10'0 0.0
2018-Jun-02 17:29N 47°48' E 035°10'0 0.0
2018-Jun-02 16:59N 47°48' E 035°10'0 0.0
2018-Jun-02 16:29N 47°48' E 035°10'0 0.0
2018-Jun-02 15:53N 47°48' E 035°10'0 0.0
2018-Jun-02 15:29N 47°48' E 035°10'0 0.1
2018-Jun-02 14:55N 47°48' E 035°10'0 0.4
2018-Jun-02 14:25N 47°48' E 035°10'0 0.0
2018-Jun-02 13:55N 47°48' E 035°10'0 0.0
2018-Jun-02 13:19N 47°48' E 035°10'0 0.1
2018-Jun-02 12:55N 47°48' E 035°10'0 0.6
2018-Jun-02 12:19N 47°49' E 035°10'0 0.0
2018-Jun-02 11:55N 47°49' E 035°10'0 0.0
2018-Jun-02 11:25N 47°49' E 035°10'0 0.0
2018-Jun-02 10:55N 47°49' E 035°10'0 0.0
2018-Jun-02 10:25N 47°49' E 035°10'0 0.0
2018-Jun-02 09:55N 47°49' E 035°10'0 0.0
2018-Jun-02 09:25N 47°49' E 035°10'0 0.0
2018-Jun-02 08:55N 47°49' E 035°10'0 0.0
2018-Jun-02 08:25N 47°49' E 035°10'0 0.0
2018-Jun-02 07:55N 47°49' E 035°10'0 0.0
2018-Jun-02 07:25N 47°49' E 035°10'0 0.0
2018-Jun-02 06:55N 47°49' E 035°10'0 0.0
2018-Jun-02 06:25N 47°49' E 035°10'0 0.0
2018-Jun-02 05:55N 47°49' E 035°10'0 0.0
2018-Jun-02 05:25N 47°49' E 035°10'0 0.0
2018-Jun-02 04:55N 47°49' E 035°10'0 0.0
2018-Jun-02 04:25N 47°49' E 035°10'0 0.0
2018-Jun-02 03:55N 47°49' E 035°10'0 0.5
2018-Jun-02 03:30N 47°48' E 035°09'3 5.1
2018-Jun-02 03:00N 47°50' E 035°06'2 3.6
2018-Jun-02 02:27N 47°52' E 035°06'0 0.2
2018-Jun-02 01:57N 47°52' E 035°06'0 0.7
2018-Jun-02 01:27N 47°52' E 035°06'0 0.7
2018-Jun-02 00:55N 47°52' E 035°06'0 0.0
2018-Jun-02 00:25N 47°52' E 035°06'0 0.0
2018-Jun-01 23:55N 47°52' E 035°06'0 0.0
2018-Jun-01 23:19N 47°52' E 035°06'0 0.0
2018-Jun-01 22:55N 47°52' E 035°06'0 0.0
2018-Jun-01 22:25N 47°52' E 035°06'0 0.0
2018-Jun-01 21:55N 47°52' E 035°06'0 0.0
2018-Jun-01 21:25N 47°52' E 035°06'0 0.0
2018-Jun-01 20:55N 47°52' E 035°06'0 0.0
2018-Jun-01 20:25N 47°52' E 035°06'0 0.0
2018-Jun-01 19:55N 47°52' E 035°06'0 0.0
2018-Jun-01 19:25N 47°52' E 035°06'0 0.0
2018-Jun-01 18:55N 47°52' E 035°06'0 0.0
2018-Jun-01 18:13N 47°52' E 035°06'0 0.0
2018-Jun-01 17:55N 47°52' E 035°06'0 0.0
2018-Jun-01 17:07N 47°52' E 035°06'0 0.0
2018-Jun-01 16:58N 47°52' E 035°06'0 0.5
2018-Jun-01 16:27N 47°52' E 035°06'2 3.9
2018-Jun-01 16:00N 47°54' E 035°07'2 4.5
2018-Jun-01 15:29N 47°56' E 035°07'2 4.4
2018-Jun-01 14:59N 47°59' E 035°07'2 3.5
2018-Jun-01 14:29N 48°00' E 035°08'  
2018-May-29 19:17N 48°02' E 035°07'1 3.0
2018-May-29 18:58N 48°02' E 035°08'1 3.0
2018-May-29 18:30N 48°00' E 035°08'2 3.2
2018-May-29 18:00N 47°59' E 035°08'2 3.2
2018-May-29 17:29N 47°57' E 035°07'2 3.2
2018-May-29 17:00N 47°55' E 035°07'2 3.1
2018-May-29 16:30N 47°54' E 035°06'2 3.1
2018-May-29 16:00N 47°52' E 035°06'0 0.6
2018-May-29 15:26N 47°52' E 035°06'0 0.9
2018-May-29 14:58N 47°52' E 035°06'0 0.2
2018-May-29 14:28N 47°52' E 035°06'1 1.7
2018-May-29 13:58N 47°52' E 035°05'0 0.2
2018-May-29 13:28N 47°52' E 035°05'1 2.9
2018-May-29 13:00N 47°50' E 035°05'2 4.3
2018-May-29 12:29N 47°49' E 035°08'1 2.8
2018-May-29 12:00N 47°48' E 035°10'0 0.7
2018-May-29 11:25N 47°49' E 035°10'0 0.0
2018-May-29 10:43N 47°49' E 035°10'0 0.0
2018-May-29 10:25N 47°49' E 035°10'0 1.0
2018-May-29 09:56N 47°48' E 035°10'1 2.6
2018-May-29 09:26N 47°47' E 035°09'1 2.8
2018-May-29 08:58N 47°46' E 035°10'1 2.8
2018-May-29 08:30N 47°44' E 035°10'1 2.8
2018-May-29 07:59N 47°43' E 035°09'9 2.3
2018-May-29 04:12N 47°35' E 035°03'0 0.0
2018-May-29 04:00N 47°35' E 035°03'0 0.0
2018-May-29 03:24N 47°35' E 035°03'0 0.0
2018-May-29 03:00N 47°35' E 035°03'  

Dump ship's entire track history